NCAR-RAP Real-Time Weather Data

Output produced by METARs form (17 December 2018  06:52 UTC)
found at http://weather.rap.ucar.edu/surface/
 
Conditions at: KLAL observed 17 December 2018  06:15 UTC
Temperature: 11.0°C (52°F)
Dewpoint: 10.0°C (50°F) [RH = 94%]
Pressure (altimeter): 30.14 inches Hg (1020.7 mb)
Winds: calm
Visibility: 10 or more miles (16+ km)
Ceiling: at least 12,000 feet AGL
Clouds: sky clear below 12,000 feet AGL
Present Weather: automated observation with no human augmentation;
there may or may not be significant weather present at this time
KLAL 170615Z AUTO 00000KT 10SM CLR 11/10 A3014 RMK AO2

Conditions at: KLAL observed 17 December 2018  05:55 UTC
Temperature: 11.0°C (52°F)
Dewpoint: 10.0°C (50°F) [RH = 94%]
Pressure (altimeter): 30.14 inches Hg (1020.7 mb)
Winds: calm
Visibility: 10 or more miles (16+ km)
Ceiling: at least 12,000 feet AGL
Clouds: sky clear below 12,000 feet AGL
Present Weather: automated observation with no human augmentation;
there may or may not be significant weather present at this time
KLAL 170555Z AUTO 00000KT 10SM CLR 11/10 A3014 RMK AO2

Conditions at: KLAL observed 17 December 2018  05:35 UTC
Temperature: 11.0°C (52°F)
Dewpoint: 10.0°C (50°F) [RH = 94%]
Pressure (altimeter): 30.15 inches Hg (1021.1 mb)
Winds: from the NW (310 degrees) at 3 MPH (3 knots; 1.6 m/s)
Visibility: 10 or more miles (16+ km)
Ceiling: at least 12,000 feet AGL
Clouds: sky clear below 12,000 feet AGL
Present Weather: automated observation with no human augmentation;
there may or may not be significant weather present at this time
KLAL 170535Z AUTO 31003KT 10SM CLR 11/10 A3015 RMK AO2

Conditions at: KLAL observed 17 December 2018  05:15 UTC
Temperature: 12.0°C (54°F)
Dewpoint: 10.0°C (50°F) [RH = 88%]
Pressure (altimeter): 30.15 inches Hg (1021.1 mb)
Winds: calm
Visibility: 10 or more miles (16+ km)
Ceiling: at least 12,000 feet AGL
Clouds: sky clear below 12,000 feet AGL
Present Weather: automated observation with no human augmentation;
there may or may not be significant weather present at this time
KLAL 170515Z AUTO 00000KT 10SM CLR 12/10 A3015 RMK AO2

Conditions at: KLAL observed 17 December 2018  03:35 UTC
Temperature: 13.0°C (55°F)
Dewpoint: 10.0°C (50°F) [RH = 82%]
Pressure (altimeter): 30.17 inches Hg (1021.8 mb)
Winds: from the NW (310 degrees) at 5 MPH (4 knots; 2.1 m/s)
Visibility: 10 or more miles (16+ km)
Ceiling: at least 12,000 feet AGL
Clouds: sky clear below 12,000 feet AGL
Present Weather: automated observation with no human augmentation;
there may or may not be significant weather present at this time
KLAL 170335Z AUTO 31004KT 10SM CLR 13/10 A3017 RMK AO2

Conditions at: KLAL observed 17 December 2018  01:50 UTC
Temperature: 14.0°C (57°F)
Dewpoint: 10.0°C (50°F) [RH = 77%]
Pressure (altimeter): 30.16 inches Hg (1021.4 mb)
Winds: from the NW (310 degrees) at 7 MPH (6 knots; 3.1 m/s)
Visibility: 10 or more miles (16+ km)
Ceiling: 2500 feet AGL
Clouds: broken clouds at 2500 feet AGL
Present Weather: no significant weather observed at this time
KLAL 170150Z 31006KT 10SM BKN025 14/10 A3016

Conditions at: KLAL observed 17 December 2018  00:50 UTC
Temperature: 14.0°C (57°F)
Dewpoint: 10.0°C (50°F) [RH = 77%]
Pressure (altimeter): 30.16 inches Hg (1021.4 mb)
Winds: from the NW (320 degrees) at 9 MPH (8 knots; 4.2 m/s)
Visibility: 10 or more miles (16+ km)
Ceiling: at least 12,000 feet AGL
Clouds: scattered clouds at 2900 feet AGL
Present Weather: no significant weather observed at this time
KLAL 170050Z 32008KT 10SM SCT029 14/10 A3016

Conditions at: KLAL observed 16 December 2018  23:50 UTC
Temperature: 16.0°C (61°F)
Dewpoint: 11.0°C (52°F) [RH = 72%]
Pressure (altimeter): 30.13 inches Hg (1020.4 mb)
Winds: from the WNW (300 degrees) at 8 MPH (7 knots; 3.6 m/s)
Visibility: 10 or more miles (16+ km)
Ceiling: at least 12,000 feet AGL
Clouds: clear skies
Present Weather: no significant weather observed at this time
KLAL 162350Z 30007KT 10SM SKC 16/11 A3013

Conditions at: KLAL observed 16 December 2018  22:50 UTC
Temperature: 18.0°C (64°F)
Dewpoint: 13.0°C (55°F) [RH = 73%]
Pressure (altimeter): 30.12 inches Hg (1020.1 mb)
Winds: from the NW (310 degrees) at 9 MPH (8 knots; 4.2 m/s)
Visibility: 10 or more miles (16+ km)
Ceiling: at least 12,000 feet AGL
Clouds: scattered clouds at 3300 feet AGL
Present Weather: no significant weather observed at this time
KLAL 162250Z 31008KT 10SM SCT033 18/13 A3012

Conditions at: KLAL observed 16 December 2018  21:50 UTC
Temperature: 19.0°C (66°F)
Dewpoint: 13.0°C (55°F) [RH = 68%]
Pressure (altimeter): 30.09 inches Hg (1019.0 mb)
Winds: from the NW (320 degrees) at 9 MPH (8 knots; 4.2 m/s)
Visibility: 10 or more miles (16+ km)
Ceiling: at least 12,000 feet AGL
Clouds: scattered clouds at 2000 feet AGL
Present Weather: no significant weather observed at this time
KLAL 162150Z 32008KT 10SM SCT020 19/13 A3009

Conditions at: KLAL observed 16 December 2018  20:50 UTC
Temperature: 20.0°C (68°F)
Dewpoint: 13.0°C (55°F) [RH = 64%]
Pressure (altimeter): 30.09 inches Hg (1019.0 mb)
Winds: from the NW (320 degrees) at 8 MPH (7 knots; 3.6 m/s)
Visibility: 10 or more miles (16+ km)
Ceiling: at least 12,000 feet AGL
Clouds: scattered clouds at 2600 feet AGL
Present Weather: no significant weather observed at this time
KLAL 162050Z 32007KT 10SM SCT026 20/13 A3009

Conditions at: KLAL observed 16 December 2018  19:50 UTC
Temperature: 21.0°C (70°F)
Dewpoint: 14.0°C (57°F) [RH = 64%]
Pressure (altimeter): 30.08 inches Hg (1018.7 mb)
Winds: from the WNW (300 degrees) at 8 MPH (7 knots; 3.6 m/s)
Visibility: 10 or more miles (16+ km)
Ceiling: 2600 feet AGL
Clouds: broken clouds at 2600 feet AGL
Present Weather: no significant weather observed at this time
KLAL 161950Z 30007KT 10SM BKN026 21/14 A3008

Conditions at: KLAL observed 16 December 2018  18:50 UTC
Temperature: 20.0°C (68°F)
Dewpoint: 14.0°C (57°F) [RH = 68%]
Pressure (altimeter): 30.08 inches Hg (1018.7 mb)
Winds: from the NW (310 degrees) at 6 MPH (5 knots; 2.6 m/s)
Visibility: 10 or more miles (16+ km)
Ceiling: at least 12,000 feet AGL
Clouds: scattered clouds at 1900 feet AGL
Present Weather: no significant weather observed at this time
KLAL 161850Z 31005KT 10SM SCT019 20/14 A3008

Conditions at: KLAL observed 16 December 2018  17:55 UTC
Temperature: 20.0°C (68°F)
Dewpoint: 15.0°C (59°F) [RH = 73%]
Pressure (altimeter): 30.10 inches Hg (1019.4 mb)
Winds: from the N (350 degrees) at 8 MPH (7 knots; 3.6 m/s)
Visibility: 10 or more miles (16+ km)
Ceiling: at least 12,000 feet AGL
Clouds: scattered clouds at 1700 feet AGL
scattered clouds at 2900 feet AGL
Present Weather: no significant weather observed at this time
KLAL 161755Z 35007KT 10SM SCT017 SCT029 20/15 A3010

Conditions at: KLAL observed 16 December 2018  16:48 UTC
Temperature: 20.0°C (68°F)
Dewpoint: 15.0°C (59°F) [RH = 73%]
Pressure (altimeter): 30.14 inches Hg (1020.7 mb)
Winds: from the NW (320 degrees) at 8 MPH (7 knots; 3.6 m/s)
Visibility: 10 or more miles (16+ km)
Ceiling: 2000 feet AGL
Clouds: broken clouds at 2000 feet AGL
Present Weather: no significant weather observed at this time
KLAL 161648Z 32007KT 10SM BKN020 20/15 A3014

Conditions at: KLAL observed 16 December 2018  15:50 UTC
Temperature: 19.0°C (66°F)
Dewpoint: 16.0°C (61°F) [RH = 83%]
Pressure (altimeter): 30.16 inches Hg (1021.4 mb)
Winds: from the N (350 degrees) at 5 MPH (4 knots; 2.1 m/s)
Visibility: 10 or more miles (16+ km)
Ceiling: 1500 feet AGL
Clouds: broken clouds at 1500 feet AGL
Present Weather: no significant weather observed at this time
KLAL 161550Z 35004KT 10SM BKN015 19/16 A3016

Conditions at: KLAL observed 16 December 2018  14:50 UTC
Temperature: 18.0°C (64°F)
Dewpoint: 16.0°C (61°F) [RH = 88%]
Pressure (altimeter): 30.16 inches Hg (1021.4 mb)
Winds: calm
Visibility: 10 or more miles (16+ km)
Ceiling: 6000 feet AGL
Clouds: broken clouds at 6000 feet AGL
Present Weather: no significant weather observed at this time
KLAL 161450Z 00000KT 10SM BKN060 18/16 A3016

Conditions at: KLAL observed 16 December 2018  13:50 UTC
Temperature: 16.0°C (61°F)
Dewpoint: 16.0°C (61°F) [RH = 100%]
Pressure (altimeter): 30.15 inches Hg (1021.1 mb)
Winds: calm
Visibility: 5 miles (8 km)
Ceiling: at least 12,000 feet AGL
Clouds: scattered clouds at 6000 feet AGL
Present Weather: BR  (mist)
KLAL 161350Z 00000KT 5SM BR SCT060 16/16 A3015

Conditions at: KLAL observed 16 December 2018  13:47 UTC
Temperature: 14.0°C (57°F)
Dewpoint: 14.0°C (57°F) [RH = 100%]
Pressure (altimeter): 30.15 inches Hg (1021.1 mb)
Winds: calm
Visibility: 5 miles (8 km)
Ceiling: 6500 feet AGL
Clouds: broken clouds at 6500 feet AGL
Present Weather: BR  (mist)
KLAL 161347Z 00000KT 5SM BR BKN065 14/14 A3015

Conditions at: KLAL observed 16 December 2018  11:46 UTC
Temperature: 13.0°C (55°F)
Dewpoint: 13.0°C (55°F) [RH = 100%]
Pressure (altimeter): 30.13 inches Hg (1020.4 mb)
Winds: calm
Visibility: 0.25 miles (0.40 km)
Ceiling: 6000 feet AGL
Clouds: scattered clouds at 800 feet AGL
broken clouds at 6000 feet AGL
Present Weather: FG  (fog)
KLAL 161146Z 00000KT 1/4SM FG SCT008 BKN060 13/13 A3013

Conditions at: KLAL observed 16 December 2018  10:55 UTC
Temperature: 14.0°C (57°F)
Dewpoint: 14.0°C (57°F) [RH = 100%]
Pressure (altimeter): 30.11 inches Hg (1019.7 mb)
Winds: calm
Visibility: 2.00 miles (3.22 km)
Ceiling: at least 12,000 feet AGL
Clouds: scattered clouds at 6000 feet AGL
Present Weather: BR  (mist)
KLAL 161055Z 00000KT 2SM BR SCT060 14/14 A3011

Conditions at: KLAL observed 16 December 2018  10:15 UTC
Temperature: 13.0°C (55°F)
Dewpoint: 12.0°C (54°F) [RH = 94%]
Pressure (altimeter): 30.10 inches Hg (1019.4 mb)
Winds: calm
Visibility: 0.25 miles (0.40 km)
Ceiling: 200 feet AGL
Clouds: broken clouds at 200 feet AGL
overcast cloud deck at 600 feet AGL
Present Weather: FG  (fog)
KLAL 161015Z AUTO 00000KT 1/4SM FG BKN002 OVC006 13/12 A3010 RMK AO2

Conditions at: KLAL observed 16 December 2018  09:55 UTC
Temperature: 13.0°C (55°F)
Dewpoint: 13.0°C (55°F) [RH = 100%]
Pressure (altimeter): 30.09 inches Hg (1019.0 mb)
Winds: calm
Visibility: 0.25 miles (0.40 km)
Ceiling: 200 feet AGL
Clouds: broken clouds at 200 feet AGL
overcast cloud deck at 800 feet AGL
Present Weather: FG  (fog)
KLAL 160955Z AUTO 00000KT 1/4SM FG BKN002 OVC008 13/13 A3009 RMK AO2

Conditions at: KLAL observed 16 December 2018  08:35 UTC
Temperature: 13.0°C (55°F)
Dewpoint: 13.0°C (55°F) [RH = 100%]
Pressure (altimeter): 30.08 inches Hg (1018.7 mb)
Winds: calm
Visibility: 0.25 miles (0.40 km)
Ceiling: 900 feet AGL
Clouds: broken clouds at 900 feet AGL
overcast cloud deck at 1400 feet AGL
Present Weather: FG  (fog)
KLAL 160835Z AUTO 00000KT 1/4SM FG BKN009 OVC014 13/13 A3008 RMK AO2 VIS 1/4V2